createdAt,value
2022-08-19T00:00:46.029Z,11.80
2022-08-19T00:03:14.785Z,11.30
2022-08-19T00:07:20.745Z,11.80
2022-08-19T00:10:41.632Z,11.60
2022-08-19T00:13:23.118Z,11.70
2022-08-19T00:24:32.713Z,11.50
2022-08-19T00:35:04.837Z,11.50
2022-08-19T00:38:00.109Z,11.00
2022-08-19T00:45:09.468Z,12.00
2022-08-19T00:47:38.207Z,12.00
2022-08-19T00:50:28.422Z,12.30
2022-08-19T00:52:57.323Z,11.00
2022-08-19T00:55:49.452Z,11.30
2022-08-19T00:58:25.342Z,12.20
2022-08-19T01:00:54.607Z,12.30
2022-08-19T01:03:25.465Z,12.20
2022-08-19T01:05:56.322Z,12.50
2022-08-19T01:08:25.143Z,11.60
2022-08-19T01:11:16.052Z,12.00
2022-08-19T01:13:49.854Z,11.50
2022-08-19T01:16:22.471Z,12.40
2022-08-19T01:18:51.776Z,13.00
2022-08-19T01:21:25.650Z,13.20
2022-08-19T01:23:56.796Z,12.60
2022-08-19T01:26:27.116Z,11.20
2022-08-19T01:29:01.585Z,10.90
2022-08-19T01:31:33.718Z,12.80
2022-08-19T01:34:03.726Z,12.40
2022-08-19T01:36:35.072Z,12.50
2022-08-19T01:39:10.197Z,12.80
2022-08-19T01:41:42.108Z,12.00
2022-08-19T01:44:18.755Z,10.90
2022-08-19T01:46:49.429Z,12.30
2022-08-19T01:49:20.114Z,11.70
2022-08-19T01:51:50.141Z,12.60
2022-08-19T01:54:23.315Z,13.70
2022-08-19T01:57:02.176Z,12.50
2022-08-19T01:59:32.214Z,11.50
2022-08-19T02:02:07.668Z,11.50
2022-08-19T02:04:38.488Z,11.60
2022-08-19T02:07:10.006Z,11.60
2022-08-19T02:09:38.645Z,11.70
2022-08-19T02:12:18.464Z,12.00
2022-08-19T02:14:46.845Z,11.40
2022-08-19T02:17:15.530Z,10.80
2022-08-19T02:19:46.766Z,10.70
2022-08-19T02:22:17.579Z,11.20
2022-08-19T02:24:48.621Z,11.10
2022-08-19T02:27:17.114Z,11.80
2022-08-19T02:29:48.176Z,11.20
2022-08-19T02:32:17.285Z,10.60
2022-08-19T02:34:48.669Z,10.90
2022-08-19T02:37:31.860Z,11.80
2022-08-19T02:40:23.144Z,11.50
2022-08-19T02:42:52.790Z,12.00
2022-08-19T02:45:22.457Z,12.00
2022-08-19T02:47:50.884Z,11.40
2022-08-19T02:50:19.834Z,10.80
2022-08-19T02:52:48.484Z,11.00
2022-08-19T02:55:17.204Z,12.10
2022-08-19T02:57:46.000Z,12.90
2022-08-19T03:00:15.839Z,12.40
2022-08-19T03:02:44.330Z,12.00
2022-08-19T03:05:13.456Z,10.80
2022-08-19T03:07:41.972Z,12.10
2022-08-19T03:10:10.860Z,12.90
2022-08-19T03:12:39.888Z,13.50
2022-08-19T03:15:10.599Z,11.30
2022-08-19T03:17:39.428Z,13.00
2022-08-19T03:20:12.362Z,11.80
2022-08-19T03:22:40.996Z,11.90
2022-08-19T03:25:11.720Z,14.10
2022-08-19T03:27:40.192Z,12.80
2022-08-19T03:30:11.679Z,12.60
2022-08-19T03:32:45.314Z,12.10
2022-08-19T03:35:27.398Z,12.00
2022-08-19T03:38:00.005Z,12.00
2022-08-19T03:40:30.573Z,11.90
2022-08-19T03:43:11.646Z,12.60
2022-08-19T03:45:40.195Z,12.10
2022-08-19T03:48:11.330Z,12.40
2022-08-19T03:50:43.302Z,12.00
2022-08-19T03:53:11.722Z,12.00
2022-08-19T03:55:42.237Z,12.60
2022-08-19T03:58:11.814Z,12.30
2022-08-19T04:00:43.405Z,12.30
2022-08-19T04:03:12.390Z,12.70
2022-08-19T04:05:40.785Z,12.00
2022-08-19T04:08:13.670Z,12.30
2022-08-19T04:10:42.688Z,12.90
2022-08-19T04:13:14.089Z,13.00
2022-08-19T04:15:46.750Z,14.00
2022-08-19T04:18:15.887Z,12.60
2022-08-19T04:20:46.552Z,12.40
2022-08-19T04:23:19.267Z,12.60
2022-08-19T04:25:47.995Z,12.70
2022-08-19T04:28:19.015Z,13.90
2022-08-19T04:30:50.750Z,13.20
2022-08-19T04:33:22.399Z,12.40
2022-08-19T04:35:58.673Z,13.10
2022-08-19T04:38:27.467Z,13.00
2022-08-19T04:41:22.582Z,12.90
2022-08-19T04:43:53.547Z,13.10
2022-08-19T04:46:40.251Z,13.10
2022-08-19T04:49:13.762Z,12.70
2022-08-19T04:51:47.764Z,12.60
2022-08-19T04:54:37.290Z,13.50
2022-08-19T04:57:11.104Z,13.20
2022-08-19T04:59:40.970Z,13.70
2022-08-19T05:02:10.103Z,14.50
2022-08-19T05:04:39.424Z,13.90
2022-08-19T05:07:10.292Z,14.30
2022-08-19T05:09:57.925Z,13.70
2022-08-19T05:12:29.569Z,13.10
2022-08-19T05:15:19.878Z,12.30
2022-08-19T05:18:02.998Z,13.10
2022-08-19T05:20:50.019Z,13.50
2022-08-19T05:23:22.545Z,13.70
2022-08-19T05:25:52.176Z,14.50
2022-08-19T05:28:23.861Z,13.10
2022-08-19T05:30:52.250Z,12.80
2022-08-19T05:33:24.709Z,11.90
2022-08-19T05:35:53.102Z,13.00
2022-08-19T05:38:22.097Z,13.70
2022-08-19T05:40:51.258Z,13.30
2022-08-19T05:43:19.764Z,13.40
2022-08-19T05:45:48.247Z,13.10
2022-08-19T05:48:17.869Z,13.00
2022-08-19T05:50:53.821Z,12.70
2022-08-19T05:53:22.410Z,12.70
2022-08-19T05:55:50.891Z,12.30
2022-08-19T05:58:19.266Z,12.50
2022-08-19T06:00:54.983Z,13.00
2022-08-19T06:03:37.735Z,12.40
2022-08-19T06:06:11.608Z,11.90
2022-08-19T06:08:45.661Z,11.20
2022-08-19T06:11:20.901Z,11.90
2022-08-19T06:13:57.167Z,11.60
2022-08-19T06:16:34.508Z,11.70
2022-08-19T06:19:16.437Z,11.90
2022-08-19T06:21:48.367Z,11.80
2022-08-19T06:24:18.873Z,11.20
2022-08-19T06:29:35.447Z,10.50
2022-08-19T06:32:05.811Z,11.00
2022-08-19T06:34:35.636Z,11.50
2022-08-19T06:37:06.131Z,11.70
2022-08-19T06:39:38.973Z,10.90
2022-08-19T06:42:13.586Z,10.70
2022-08-19T06:45:09.338Z,10.80
2022-08-19T06:47:58.597Z,10.60
2022-08-19T06:50:29.360Z,10.80
2022-08-19T06:53:09.343Z,10.60
2022-08-19T06:55:38.424Z,10.70
2022-08-19T06:58:06.978Z,10.50
2022-08-19T07:00:37.010Z,11.10
2022-08-19T07:03:08.822Z,10.60
2022-08-19T07:05:45.482Z,10.80
2022-08-19T07:08:17.698Z,10.10
2022-08-19T07:10:48.373Z,10.60
2022-08-19T07:13:16.931Z,10.10
2022-08-19T07:15:47.461Z,10.10
2022-08-19T07:18:16.365Z,10.90
2022-08-19T07:21:05.179Z,10.60
2022-08-19T07:23:40.879Z,10.10
2022-08-19T07:26:10.601Z,9.20
2022-08-19T07:28:39.782Z,10.20
2022-08-19T07:31:25.844Z,9.90
2022-08-19T07:33:56.908Z,9.50
2022-08-19T07:36:32.692Z,8.90
2022-08-19T07:39:24.002Z,9.60
2022-08-19T07:41:58.611Z,9.30
2022-08-19T07:44:27.402Z,8.90
2022-08-19T07:47:49.300Z,8.90
2022-08-19T07:50:27.302Z,9.20
2022-08-19T07:55:53.813Z,9.70
2022-08-19T07:58:26.151Z,9.50
2022-08-19T08:00:54.683Z,9.90
2022-08-19T08:04:02.471Z,9.50
2022-08-19T08:06:51.853Z,10.00
2022-08-19T08:09:30.949Z,9.60
2022-08-19T08:12:33.170Z,10.00
2022-08-19T08:14:58.340Z,10.70
2022-08-19T08:17:49.133Z,9.50
2022-08-19T08:20:40.465Z,10.30
2022-08-19T08:23:30.643Z,10.00
2022-08-19T08:26:04.173Z,10.10
2022-08-19T08:28:51.697Z,10.60
2022-08-19T08:31:41.582Z,9.80
2022-08-19T08:34:14.558Z,9.80
2022-08-19T08:37:04.031Z,9.40
2022-08-19T08:39:54.940Z,9.90
2022-08-19T08:42:58.861Z,10.10
2022-08-19T08:45:56.465Z,10.00
2022-08-19T08:48:40.414Z,9.60
2022-08-19T08:51:35.154Z,9.20
2022-08-19T08:54:28.753Z,10.20
2022-08-19T08:57:13.606Z,8.90
2022-08-19T09:00:07.187Z,9.50
2022-08-19T09:03:10.426Z,9.00
2022-08-19T09:06:04.330Z,8.30
2022-08-19T09:08:50.726Z,8.40
2022-08-19T09:12:01.744Z,7.40
2022-08-19T09:14:54.875Z,7.70
2022-08-19T09:17:45.058Z,7.40
2022-08-19T09:20:42.593Z,7.60
2022-08-19T09:23:33.149Z,7.70
2022-08-19T09:26:35.320Z,7.30
2022-08-19T09:29:35.516Z,7.00
2022-08-19T09:32:27.187Z,7.30
2022-08-19T09:35:17.039Z,6.90
2022-08-19T09:38:06.932Z,6.80
2022-08-19T09:41:05.262Z,6.90
2022-08-19T09:43:57.735Z,7.50
2022-08-19T09:46:47.737Z,6.90
2022-08-19T09:49:36.381Z,7.30
2022-08-19T09:52:32.536Z,7.20
2022-08-19T09:55:21.750Z,7.10
2022-08-19T09:58:13.117Z,6.90
2022-08-19T10:01:03.957Z,7.10
2022-08-19T10:03:55.590Z,6.80
2022-08-19T10:06:46.875Z,6.40
2022-08-19T10:09:34.275Z,7.10
2022-08-19T10:12:23.294Z,7.00
2022-08-19T10:15:15.769Z,7.20
2022-08-19T10:18:04.970Z,7.00
2022-08-19T10:21:09.088Z,6.60
2022-08-19T10:24:00.106Z,6.10
2022-08-19T10:26:49.364Z,6.40
2022-08-19T10:29:46.388Z,6.60
2022-08-19T10:32:40.709Z,6.60
2022-08-19T10:35:56.385Z,6.80
2022-08-19T10:38:53.480Z,7.00
2022-08-19T10:41:45.113Z,7.10
2022-08-19T10:44:36.064Z,7.30
2022-08-19T10:47:26.073Z,7.30
2022-08-19T10:50:39.444Z,6.70
2022-08-19T10:53:28.811Z,6.90
2022-08-19T10:59:49.384Z,6.80
2022-08-19T11:03:13.164Z,6.90
2022-08-19T11:11:14.919Z,7.10
2022-08-19T11:15:33.661Z,7.10
2022-08-19T11:18:26.274Z,6.60
2022-08-19T11:22:40.628Z,6.20
2022-08-19T11:37:11.236Z,6.70
2022-08-19T11:40:26.210Z,6.50
2022-08-19T15:04:25.189Z,5.50
2022-08-19T15:07:37.400Z,5.50
2022-08-19T15:11:32.709Z,5.50
2022-08-19T15:14:50.886Z,5.80
2022-08-19T15:17:46.176Z,5.50
2022-08-19T15:20:35.502Z,5.80
2022-08-19T15:23:24.505Z,5.00
2022-08-19T15:26:14.425Z,5.20
2022-08-19T15:29:05.595Z,5.10
2022-08-19T15:31:57.282Z,4.70
2022-08-19T15:34:49.395Z,4.90
2022-08-19T15:37:38.034Z,5.10
2022-08-19T15:40:28.303Z,4.50
2022-08-19T15:43:18.209Z,5.00
2022-08-19T15:46:07.909Z,4.60
2022-08-19T15:48:59.580Z,4.80
2022-08-19T15:51:53.246Z,4.50
2022-08-19T15:54:44.090Z,4.80
2022-08-19T15:57:41.772Z,4.70
2022-08-19T16:00:52.824Z,4.80
2022-08-19T16:03:53.047Z,4.60
2022-08-19T16:06:45.147Z,5.10
2022-08-19T16:09:35.732Z,4.40
2022-08-19T16:12:29.669Z,4.90
2022-08-19T16:15:20.404Z,4.90
2022-08-19T16:18:09.764Z,5.20
2022-08-19T16:20:58.730Z,5.20
2022-08-19T16:23:49.934Z,4.90
2022-08-19T16:26:38.709Z,5.40
2022-08-19T16:29:34.074Z,5.00
2022-08-19T16:32:27.889Z,5.20
2022-08-19T16:35:16.611Z,5.10
2022-08-19T16:38:07.093Z,5.10
2022-08-19T16:40:56.627Z,5.30
2022-08-19T16:43:46.070Z,5.30
2022-08-19T16:46:36.721Z,5.20
2022-08-19T16:49:54.611Z,4.80
2022-08-19T16:52:36.847Z,5.10
2022-08-19T16:55:27.870Z,5.10
2022-08-19T16:58:17.772Z,5.40
2022-08-19T17:01:11.950Z,5.40
2022-08-19T17:03:55.220Z,5.10
2022-08-19T17:06:44.728Z,5.30
2022-08-19T17:09:33.525Z,5.50
2022-08-19T17:12:23.191Z,5.40
2022-08-19T17:15:20.426Z,4.80
2022-08-19T17:18:12.349Z,5.40
2022-08-19T17:21:02.548Z,5.00
2022-08-19T17:23:51.423Z,5.20
2022-08-19T17:26:40.701Z,4.90
2022-08-19T17:29:29.595Z,5.00
2022-08-19T17:32:25.074Z,5.00
2022-08-19T17:35:22.282Z,5.30
2022-08-19T17:38:05.466Z,5.40
2022-08-19T17:41:00.640Z,5.20
2022-08-19T17:43:49.474Z,5.00
2022-08-19T17:46:38.216Z,5.20
2022-08-19T17:49:26.942Z,5.60
2022-08-19T17:52:15.776Z,5.50
2022-08-19T17:55:06.261Z,5.30
2022-08-19T17:57:55.720Z,5.60
2022-08-19T18:00:53.994Z,6.10
2022-08-19T18:03:43.670Z,5.70
2022-08-19T18:06:32.767Z,5.70
2022-08-19T18:09:23.883Z,5.80
2022-08-19T18:12:15.820Z,5.30
2022-08-19T18:15:06.429Z,5.20
2022-08-19T18:17:55.576Z,5.80
2022-08-19T18:20:45.432Z,5.90
2022-08-19T18:23:43.852Z,5.80
2022-08-19T18:26:34.593Z,5.50
2022-08-19T18:29:23.886Z,5.70
2022-08-19T18:32:13.271Z,5.50
2022-08-19T18:35:10.649Z,5.50
2022-08-19T18:38:22.043Z,5.60
2022-08-19T18:41:31.389Z,5.60
2022-08-19T18:44:39.083Z,6.10
2022-08-19T18:47:46.279Z,5.50
2022-08-19T18:50:37.353Z,6.00
2022-08-19T18:53:29.203Z,5.70
2022-08-19T18:56:19.777Z,5.80
2022-08-19T18:59:11.359Z,6.20
2022-08-19T19:02:01.744Z,6.00
2022-08-19T19:04:50.837Z,5.90
2022-08-19T19:07:40.202Z,5.90
2022-08-19T19:10:29.236Z,5.90
2022-08-19T19:13:17.995Z,6.20
2022-08-19T19:16:10.913Z,6.10
2022-08-19T19:18:52.017Z,6.70
2022-08-19T19:21:46.996Z,5.80
2022-08-19T19:24:37.332Z,6.20
2022-08-19T19:27:27.267Z,6.40
2022-08-19T19:30:17.595Z,6.00
2022-08-19T19:33:08.511Z,6.60
2022-08-19T19:35:57.525Z,6.20
2022-08-19T19:38:48.607Z,6.40
2022-08-19T19:41:37.810Z,6.50
2022-08-19T19:44:32.524Z,6.10
2022-08-19T19:47:23.768Z,6.00
2022-08-19T19:50:15.216Z,6.60
2022-08-19T19:53:04.239Z,6.50
2022-08-19T19:55:58.299Z,6.80
2022-08-19T19:58:46.137Z,6.50
2022-08-19T20:01:37.667Z,6.90
2022-08-19T20:04:27.377Z,6.90
2022-08-19T20:07:16.150Z,6.30
2022-08-19T20:10:06.525Z,6.70
2022-08-19T20:12:56.405Z,6.20
2022-08-19T20:15:47.545Z,6.80
2022-08-19T20:18:38.323Z,6.30
2022-08-19T20:21:30.832Z,6.80
2022-08-19T20:24:23.024Z,6.50
2022-08-19T20:27:11.628Z,6.60
2022-08-19T20:30:04.853Z,6.50
2022-08-19T20:32:56.029Z,6.40
2022-08-19T20:35:45.707Z,6.50
2022-08-19T20:38:35.770Z,6.50
2022-08-19T20:41:24.537Z,6.40
2022-08-19T20:44:15.260Z,6.40
2022-08-19T20:47:04.491Z,6.50
2022-08-19T20:49:53.571Z,6.30
2022-08-19T20:52:44.219Z,6.50
2022-08-19T20:55:45.312Z,6.50
2022-08-19T20:58:35.504Z,6.10
2022-08-19T21:01:06.972Z,6.40
2022-08-19T21:03:55.738Z,6.10
2022-08-19T21:06:45.547Z,5.80
2022-08-19T21:09:35.313Z,6.00
2022-08-19T21:12:25.401Z,5.80
2022-08-19T21:15:15.678Z,6.70
2022-08-19T21:18:04.819Z,5.80
2022-08-19T21:20:55.112Z,6.10
2022-08-19T21:23:44.127Z,5.70
2022-08-19T21:26:15.055Z,5.60
2022-08-19T21:29:06.330Z,5.70
2022-08-19T21:31:54.936Z,5.90
2022-08-19T21:34:46.570Z,6.00
2022-08-19T21:37:37.464Z,6.10
2022-08-19T21:40:27.015Z,5.60
2022-08-19T21:43:16.128Z,6.10
2022-08-19T21:46:05.772Z,5.80
2022-08-19T21:48:54.733Z,5.90
2022-08-19T21:51:44.070Z,6.00
2022-08-19T21:54:37.598Z,5.60
2022-08-19T21:57:27.166Z,5.70
2022-08-19T22:00:19.413Z,5.30
2022-08-19T22:03:08.746Z,5.90
2022-08-19T22:05:58.347Z,5.40
2022-08-19T22:08:47.268Z,5.60
2022-08-19T22:11:27.768Z,5.70
2022-08-19T22:14:17.099Z,5.70
2022-08-19T22:17:06.122Z,6.00
2022-08-19T22:19:56.569Z,5.40
2022-08-19T22:22:48.589Z,5.70
2022-08-19T22:25:41.455Z,5.70
2022-08-19T22:28:30.204Z,5.90
2022-08-19T22:31:19.607Z,5.60
2022-08-19T22:34:09.294Z,5.80
2022-08-19T22:36:38.594Z,6.10
2022-08-19T22:39:27.526Z,5.30
2022-08-19T22:42:19.456Z,5.70
2022-08-19T22:45:15.384Z,5.10
2022-08-19T22:48:07.340Z,5.50
2022-08-19T22:51:15.370Z,5.70
2022-08-19T22:54:05.818Z,5.10
2022-08-19T22:56:54.691Z,5.50
2022-08-19T22:59:43.680Z,5.90
2022-08-19T23:02:37.754Z,5.70
2022-08-19T23:05:17.676Z,5.90
2022-08-19T23:08:11.055Z,5.70
2022-08-19T23:11:00.346Z,5.70
2022-08-19T23:13:49.370Z,5.80
2022-08-19T23:16:38.440Z,5.70
2022-08-19T23:19:29.238Z,5.60
2022-08-19T23:22:18.742Z,5.80
2022-08-19T23:25:12.590Z,5.60
2022-08-19T23:28:20.331Z,5.50
2022-08-19T23:31:12.326Z,5.80
2022-08-19T23:34:01.820Z,5.80
2022-08-19T23:36:50.506Z,5.90
2022-08-19T23:39:39.822Z,6.20
2022-08-19T23:42:29.716Z,5.70
2022-08-19T23:45:23.642Z,5.20
2022-08-19T23:48:13.600Z,5.50
2022-08-19T23:51:09.712Z,5.70
2022-08-19T23:53:58.436Z,6.20
2022-08-19T23:56:47.631Z,5.70
2022-08-19T23:59:36.419Z,6.30
